sensor_id;sensor_type;location;lat;lon;timestamp;pressure;altitude;pressure_sealevel;temperature
13570;BMP180;6856;51.460;7.158;2022-09-25T00:00:57;100261.00;;;18.30
13570;BMP180;6856;51.460;7.158;2022-09-25T00:03:31;100257.00;;;18.30
13570;BMP180;6856;51.460;7.158;2022-09-25T00:06:11;100255.00;;;18.30
13570;BMP180;6856;51.460;7.158;2022-09-25T00:08:45;100252.00;;;18.30
13570;BMP180;6856;51.460;7.158;2022-09-25T00:11:23;100260.00;;;18.30
13570;BMP180;6856;51.460;7.158;2022-09-25T00:14:00;100262.00;;;18.30
13570;BMP180;6856;51.460;7.158;2022-09-25T00:16:34;100259.00;;;18.20
13570;BMP180;6856;51.460;7.158;2022-09-25T00:19:10;100262.00;;;18.20
13570;BMP180;6856;51.460;7.158;2022-09-25T00:22:10;100261.00;;;18.20
13570;BMP180;6856;51.460;7.158;2022-09-25T00:24:44;100261.00;;;18.20
13570;BMP180;6856;51.460;7.158;2022-09-25T00:27:18;100262.00;;;18.20
13570;BMP180;6856;51.460;7.158;2022-09-25T00:29:51;100263.00;;;18.20
13570;BMP180;6856;51.460;7.158;2022-09-25T00:32:25;100261.00;;;18.20
13570;BMP180;6856;51.460;7.158;2022-09-25T00:34:58;100263.00;;;18.20
13570;BMP180;6856;51.460;7.158;2022-09-25T00:37:34;100260.00;;;18.20
13570;BMP180;6856;51.460;7.158;2022-09-25T00:40:09;100253.00;;;18.20
13570;BMP180;6856;51.460;7.158;2022-09-25T00:42:42;100260.00;;;18.20
13570;BMP180;6856;51.460;7.158;2022-09-25T00:45:19;100255.00;;;18.20
13570;BMP180;6856;51.460;7.158;2022-09-25T00:47:58;100254.00;;;18.20
13570;BMP180;6856;51.460;7.158;2022-09-25T00:50:38;100258.00;;;18.20
13570;BMP180;6856;51.460;7.158;2022-09-25T00:53:23;100257.00;;;18.20
13570;BMP180;6856;51.460;7.158;2022-09-25T00:56:01;100259.00;;;18.20
13570;BMP180;6856;51.460;7.158;2022-09-25T00:58:37;100256.00;;;18.20
13570;BMP180;6856;51.460;7.158;2022-09-25T01:01:11;100256.00;;;18.20
13570;BMP180;6856;51.460;7.158;2022-09-25T01:03:46;100263.00;;;18.20
13570;BMP180;6856;51.460;7.158;2022-09-25T01:06:19;100259.00;;;18.10
13570;BMP180;6856;51.460;7.158;2022-09-25T01:08:56;100271.00;;;18.10
13570;BMP180;6856;51.460;7.158;2022-09-25T01:11:31;100272.00;;;18.10
13570;BMP180;6856;51.460;7.158;2022-09-25T01:14:06;100279.00;;;18.10
13570;BMP180;6856;51.460;7.158;2022-09-25T01:16:51;100272.00;;;18.10
13570;BMP180;6856;51.460;7.158;2022-09-25T01:19:43;100273.00;;;18.10
13570;BMP180;6856;51.460;7.158;2022-09-25T01:22:26;100269.00;;;18.10
13570;BMP180;6856;51.460;7.158;2022-09-25T01:25:23;100276.00;;;18.10
13570;BMP180;6856;51.460;7.158;2022-09-25T01:28:39;100275.00;;;18.10
13570;BMP180;6856;51.460;7.158;2022-09-25T01:31:21;100273.00;;;18.10
13570;BMP180;6856;51.460;7.158;2022-09-25T01:34:04;100271.00;;;18.00
13570;BMP180;6856;51.460;7.158;2022-09-25T01:36:47;100255.00;;;18.00
13570;BMP180;6856;51.460;7.158;2022-09-25T01:39:27;100274.00;;;18.00
13570;BMP180;6856;51.460;7.158;2022-09-25T01:42:09;100269.00;;;18.00
13570;BMP180;6856;51.460;7.158;2022-09-25T01:44:53;100272.00;;;18.00
13570;BMP180;6856;51.460;7.158;2022-09-25T01:47:34;100275.00;;;18.00
13570;BMP180;6856;51.460;7.158;2022-09-25T01:50:14;100272.00;;;18.00
13570;BMP180;6856;51.460;7.158;2022-09-25T01:52:55;100278.00;;;18.00
13570;BMP180;6856;51.460;7.158;2022-09-25T01:55:34;100279.00;;;18.00
13570;BMP180;6856;51.460;7.158;2022-09-25T01:58:17;100279.00;;;18.00
13570;BMP180;6856;51.460;7.158;2022-09-25T02:00:59;100278.00;;;18.00
13570;BMP180;6856;51.460;7.158;2022-09-25T02:03:38;100276.00;;;18.00
13570;BMP180;6856;51.460;7.158;2022-09-25T02:06:18;100272.00;;;18.00
13570;BMP180;6856;51.460;7.158;2022-09-25T02:08:58;100261.00;;;17.90
13570;BMP180;6856;51.460;7.158;2022-09-25T02:11:40;100273.00;;;17.90
13570;BMP180;6856;51.460;7.158;2022-09-25T02:14:18;100269.00;;;17.90
13570;BMP180;6856;51.460;7.158;2022-09-25T02:16:56;100271.00;;;17.90
13570;BMP180;6856;51.460;7.158;2022-09-25T02:19:32;100268.00;;;17.80
13570;BMP180;6856;51.460;7.158;2022-09-25T02:22:31;100266.00;;;17.80
13570;BMP180;6856;51.460;7.158;2022-09-25T02:25:13;100273.00;;;17.80
13570;BMP180;6856;51.460;7.158;2022-09-25T02:27:51;100270.00;;;17.80
13570;BMP180;6856;51.460;7.158;2022-09-25T02:30:24;100269.00;;;17.80
13570;BMP180;6856;51.460;7.158;2022-09-25T02:33:01;100276.00;;;17.80
13570;BMP180;6856;51.460;7.158;2022-09-25T02:35:34;100273.00;;;17.80
13570;BMP180;6856;51.460;7.158;2022-09-25T02:38:08;100277.00;;;17.80
13570;BMP180;6856;51.460;7.158;2022-09-25T02:40:49;100272.00;;;17.70
13570;BMP180;6856;51.460;7.158;2022-09-25T02:43:39;100269.00;;;17.80
13570;BMP180;6856;51.460;7.158;2022-09-25T02:46:27;100278.00;;;17.80
13570;BMP180;6856;51.460;7.158;2022-09-25T02:49:15;100281.00;;;17.80
13570;BMP180;6856;51.460;7.158;2022-09-25T02:51:59;100277.00;;;17.80
13570;BMP180;6856;51.460;7.158;2022-09-25T02:54:44;100277.00;;;17.80
13570;BMP180;6856;51.460;7.158;2022-09-25T02:57:26;100276.00;;;17.80
13570;BMP180;6856;51.460;7.158;2022-09-25T03:00:07;100268.00;;;17.70
13570;BMP180;6856;51.460;7.158;2022-09-25T03:02:42;100270.00;;;17.70
13570;BMP180;6856;51.460;7.158;2022-09-25T03:05:25;100271.00;;;17.70
13570;BMP180;6856;51.460;7.158;2022-09-25T03:08:00;100272.00;;;17.70
13570;BMP180;6856;51.460;7.158;2022-09-25T03:10:52;100271.00;;;17.70
13570;BMP180;6856;51.460;7.158;2022-09-25T03:13:27;100262.00;;;17.70
13570;BMP180;6856;51.460;7.158;2022-09-25T03:16:09;100274.00;;;17.60
13570;BMP180;6856;51.460;7.158;2022-09-25T03:18:44;100281.00;;;17.60
13570;BMP180;6856;51.460;7.158;2022-09-25T03:21:20;100269.00;;;17.60
13570;BMP180;6856;51.460;7.158;2022-09-25T03:23:53;100278.00;;;17.60
13570;BMP180;6856;51.460;7.158;2022-09-25T03:26:28;100282.00;;;17.60
13570;BMP180;6856;51.460;7.158;2022-09-25T03:29:02;100272.00;;;17.60
13570;BMP180;6856;51.460;7.158;2022-09-25T03:31:37;100280.00;;;17.60
13570;BMP180;6856;51.460;7.158;2022-09-25T03:34:13;100278.00;;;17.60
13570;BMP180;6856;51.460;7.158;2022-09-25T03:36:47;100277.00;;;17.60
13570;BMP180;6856;51.460;7.158;2022-09-25T03:39:21;100277.00;;;17.60
13570;BMP180;6856;51.460;7.158;2022-09-25T03:41:55;100275.00;;;17.60
13570;BMP180;6856;51.460;7.158;2022-09-25T03:44:29;100263.00;;;17.60
13570;BMP180;6856;51.460;7.158;2022-09-25T03:47:02;100269.00;;;17.60
13570;BMP180;6856;51.460;7.158;2022-09-25T03:49:36;100273.00;;;17.60
13570;BMP180;6856;51.460;7.158;2022-09-25T03:52:10;100266.00;;;17.60
13570;BMP180;6856;51.460;7.158;2022-09-25T03:54:45;100261.00;;;17.60
13570;BMP180;6856;51.460;7.158;2022-09-25T03:57:19;100259.00;;;17.60
13570;BMP180;6856;51.460;7.158;2022-09-25T03:59:52;100272.00;;;17.50
13570;BMP180;6856;51.460;7.158;2022-09-25T04:02:26;100271.00;;;17.50
13570;BMP180;6856;51.460;7.158;2022-09-25T04:05:00;100257.00;;;17.50
13570;BMP180;6856;51.460;7.158;2022-09-25T04:07:36;100266.00;;;17.50
13570;BMP180;6856;51.460;7.158;2022-09-25T04:10:10;100224.00;;;17.50
13570;BMP180;6856;51.460;7.158;2022-09-25T04:12:43;100264.00;;;17.50
13570;BMP180;6856;51.460;7.158;2022-09-25T04:15:16;100264.00;;;17.50
13570;BMP180;6856;51.460;7.158;2022-09-25T04:17:51;100257.00;;;17.40
13570;BMP180;6856;51.460;7.158;2022-09-25T04:20:25;100261.00;;;17.40
13570;BMP180;6856;51.460;7.158;2022-09-25T04:23:00;100266.00;;;17.40
13570;BMP180;6856;51.460;7.158;2022-09-25T04:25:33;100260.00;;;17.40
13570;BMP180;6856;51.460;7.158;2022-09-25T04:28:07;100264.00;;;17.40
13570;BMP180;6856;51.460;7.158;2022-09-25T04:30:41;100263.00;;;17.40
13570;BMP180;6856;51.460;7.158;2022-09-25T04:33:15;100242.00;;;17.40
13570;BMP180;6856;51.460;7.158;2022-09-25T04:36:07;100258.00;;;17.40
13570;BMP180;6856;51.460;7.158;2022-09-25T04:38:41;100259.00;;;17.40
13570;BMP180;6856;51.460;7.158;2022-09-25T04:41:16;100262.00;;;17.40
13570;BMP180;6856;51.460;7.158;2022-09-25T04:43:51;100264.00;;;17.40
13570;BMP180;6856;51.460;7.158;2022-09-25T04:46:24;100272.00;;;17.40
13570;BMP180;6856;51.460;7.158;2022-09-25T04:48:58;100271.00;;;17.40
13570;BMP180;6856;51.460;7.158;2022-09-25T04:51:31;100262.00;;;17.30
13570;BMP180;6856;51.460;7.158;2022-09-25T04:54:06;100259.00;;;17.30
13570;BMP180;6856;51.460;7.158;2022-09-25T04:56:41;100266.00;;;17.30
13570;BMP180;6856;51.460;7.158;2022-09-25T04:59:14;100255.00;;;17.30
13570;BMP180;6856;51.460;7.158;2022-09-25T05:01:48;100262.00;;;17.20
13570;BMP180;6856;51.460;7.158;2022-09-25T05:04:23;100261.00;;;17.20
13570;BMP180;6856;51.460;7.158;2022-09-25T05:06:56;100253.00;;;17.20
13570;BMP180;6856;51.460;7.158;2022-09-25T05:09:32;100257.00;;;17.20
13570;BMP180;6856;51.460;7.158;2022-09-25T05:12:06;100257.00;;;17.20
13570;BMP180;6856;51.460;7.158;2022-09-25T05:14:39;100252.00;;;17.20
13570;BMP180;6856;51.460;7.158;2022-09-25T05:17:13;100251.00;;;17.20
13570;BMP180;6856;51.460;7.158;2022-09-25T05:19:46;100256.00;;;17.10
13570;BMP180;6856;51.460;7.158;2022-09-25T05:22:20;100254.00;;;17.10
13570;BMP180;6856;51.460;7.158;2022-09-25T05:24:54;100259.00;;;17.10
13570;BMP180;6856;51.460;7.158;2022-09-25T05:27:32;100265.00;;;17.10
13570;BMP180;6856;51.460;7.158;2022-09-25T17:42:42;100106.00;;;19.90
13570;BMP180;6856;51.460;7.158;2022-09-25T17:45:28;100108.00;;;19.80
13570;BMP180;6856;51.460;7.158;2022-09-25T17:48:03;100098.00;;;19.80
13570;BMP180;6856;51.460;7.158;2022-09-25T17:50:36;100108.00;;;19.90
13570;BMP180;6856;51.460;7.158;2022-09-25T17:53:16;100101.00;;;19.90
13570;BMP180;6856;51.460;7.158;2022-09-25T17:55:50;100109.00;;;19.90
13570;BMP180;6856;51.460;7.158;2022-09-25T17:58:29;100106.00;;;19.90
13570;BMP180;6856;51.460;7.158;2022-09-25T18:01:10;100096.00;;;19.90
13570;BMP180;6856;51.460;7.158;2022-09-25T18:03:45;100080.00;;;19.90
13570;BMP180;6856;51.460;7.158;2022-09-25T18:06:18;100100.00;;;19.90
13570;BMP180;6856;51.460;7.158;2022-09-25T18:08:53;100102.00;;;19.80
13570;BMP180;6856;51.460;7.158;2022-09-25T18:11:26;100101.00;;;19.80
13570;BMP180;6856;51.460;7.158;2022-09-25T18:14:01;100107.00;;;19.80
13570;BMP180;6856;51.460;7.158;2022-09-25T18:16:35;100108.00;;;19.80
13570;BMP180;6856;51.460;7.158;2022-09-25T18:19:14;100109.00;;;19.80
13570;BMP180;6856;51.460;7.158;2022-09-25T18:22:05;100110.00;;;19.70
13570;BMP180;6856;51.460;7.158;2022-09-25T18:24:53;100108.00;;;19.70
13570;BMP180;6856;51.460;7.158;2022-09-25T18:27:32;100116.00;;;19.70
13570;BMP180;6856;51.460;7.158;2022-09-25T18:30:12;100115.00;;;19.60
13570;BMP180;6856;51.460;7.158;2022-09-25T18:32:46;100109.00;;;19.60
13570;BMP180;6856;51.460;7.158;2022-09-25T18:35:21;100105.00;;;19.60
13570;BMP180;6856;51.460;7.158;2022-09-25T18:37:57;100107.00;;;19.50
13570;BMP180;6856;51.460;7.158;2022-09-25T18:40:30;100095.00;;;19.50
13570;BMP180;6856;51.460;7.158;2022-09-25T18:43:04;100102.00;;;19.50
13570;BMP180;6856;51.460;7.158;2022-09-25T18:45:46;100109.00;;;19.50
13570;BMP180;6856;51.460;7.158;2022-09-25T18:48:22;100097.00;;;19.40
13570;BMP180;6856;51.460;7.158;2022-09-25T18:50:56;100101.00;;;19.40
13570;BMP180;6856;51.460;7.158;2022-09-25T18:53:30;100098.00;;;19.40
13570;BMP180;6856;51.460;7.158;2022-09-25T18:56:03;100089.00;;;19.40
13570;BMP180;6856;51.460;7.158;2022-09-25T18:58:37;100098.00;;;19.30
13570;BMP180;6856;51.460;7.158;2022-09-25T19:01:12;100089.00;;;19.30
13570;BMP180;6856;51.460;7.158;2022-09-25T19:03:48;100094.00;;;19.30
13570;BMP180;6856;51.460;7.158;2022-09-25T19:06:22;100086.00;;;19.20
13570;BMP180;6856;51.460;7.158;2022-09-25T19:08:57;100082.00;;;19.20
13570;BMP180;6856;51.460;7.158;2022-09-25T19:11:30;100085.00;;;19.20
13570;BMP180;6856;51.460;7.158;2022-09-25T19:14:03;100090.00;;;19.10
13570;BMP180;6856;51.460;7.158;2022-09-25T19:16:38;100082.00;;;19.10
13570;BMP180;6856;51.460;7.158;2022-09-25T19:19:12;100081.00;;;19.00
13570;BMP180;6856;51.460;7.158;2022-09-25T19:21:45;100087.00;;;19.00
13570;BMP180;6856;51.460;7.158;2022-09-25T19:24:19;100082.00;;;19.00
13570;BMP180;6856;51.460;7.158;2022-09-25T19:26:52;100087.00;;;18.90
13570;BMP180;6856;51.460;7.158;2022-09-25T19:29:27;100083.00;;;18.90
13570;BMP180;6856;51.460;7.158;2022-09-25T19:32:03;100085.00;;;18.80
13570;BMP180;6856;51.460;7.158;2022-09-25T19:34:50;100075.00;;;18.80
13570;BMP180;6856;51.460;7.158;2022-09-25T19:37:25;100074.00;;;18.70
13570;BMP180;6856;51.460;7.158;2022-09-25T19:40:01;100065.00;;;18.70
13570;BMP180;6856;51.460;7.158;2022-09-25T19:42:52;100070.00;;;18.60
13570;BMP180;6856;51.460;7.158;2022-09-25T19:45:25;100051.00;;;18.50
13570;BMP180;6856;51.460;7.158;2022-09-25T19:48:02;100056.00;;;18.50
13570;BMP180;6856;51.460;7.158;2022-09-25T19:50:39;100056.00;;;18.50
13570;BMP180;6856;51.460;7.158;2022-09-25T19:53:14;100067.00;;;18.40
13570;BMP180;6856;51.460;7.158;2022-09-25T19:55:50;100058.00;;;18.40
13570;BMP180;6856;51.460;7.158;2022-09-25T19:58:24;100058.00;;;18.30
13570;BMP180;6856;51.460;7.158;2022-09-25T20:00:57;100056.00;;;18.30
13570;BMP180;6856;51.460;7.158;2022-09-25T20:03:32;100051.00;;;18.20
13570;BMP180;6856;51.460;7.158;2022-09-25T20:06:07;100049.00;;;18.20
13570;BMP180;6856;51.460;7.158;2022-09-25T20:08:41;100046.00;;;18.10
13570;BMP180;6856;51.460;7.158;2022-09-25T20:11:18;100052.00;;;18.10
13570;BMP180;6856;51.460;7.158;2022-09-25T20:13:52;100042.00;;;18.00
13570;BMP180;6856;51.460;7.158;2022-09-25T20:16:28;100042.00;;;18.00
13570;BMP180;6856;51.460;7.158;2022-09-25T20:19:05;100036.00;;;17.90
13570;BMP180;6856;51.460;7.158;2022-09-25T20:21:39;100034.00;;;17.90
13570;BMP180;6856;51.460;7.158;2022-09-25T20:24:12;100037.00;;;17.80
13570;BMP180;6856;51.460;7.158;2022-09-25T20:26:48;100033.00;;;17.80
13570;BMP180;6856;51.460;7.158;2022-09-25T20:29:22;100027.00;;;17.80
13570;BMP180;6856;51.460;7.158;2022-09-25T20:31:55;100034.00;;;17.70
13570;BMP180;6856;51.460;7.158;2022-09-25T20:34:30;100017.00;;;17.70
13570;BMP180;6856;51.460;7.158;2022-09-25T20:37:03;100022.00;;;17.60
13570;BMP180;6856;51.460;7.158;2022-09-25T20:39:37;100021.00;;;17.60
13570;BMP180;6856;51.460;7.158;2022-09-25T20:42:10;100024.00;;;17.50
13570;BMP180;6856;51.460;7.158;2022-09-25T20:44:44;100024.00;;;17.50
13570;BMP180;6856;51.460;7.158;2022-09-25T20:47:17;100031.00;;;17.50
13570;BMP180;6856;51.460;7.158;2022-09-25T20:49:52;100024.00;;;17.40
13570;BMP180;6856;51.460;7.158;2022-09-25T20:52:26;100019.00;;;17.40
13570;BMP180;6856;51.460;7.158;2022-09-25T20:54:59;100026.00;;;17.30
13570;BMP180;6856;51.460;7.158;2022-09-25T20:57:33;100006.00;;;17.30
13570;BMP180;6856;51.460;7.158;2022-09-25T21:00:08;100019.00;;;17.20
13570;BMP180;6856;51.460;7.158;2022-09-25T21:02:48;100007.00;;;17.20
13570;BMP180;6856;51.460;7.158;2022-09-25T21:05:23;100014.00;;;17.10
13570;BMP180;6856;51.460;7.158;2022-09-25T21:07:56;99996.00;;;17.10
13570;BMP180;6856;51.460;7.158;2022-09-25T21:10:33;100008.00;;;17.10
13570;BMP180;6856;51.460;7.158;2022-09-25T21:13:08;100000.00;;;17.10
13570;BMP180;6856;51.460;7.158;2022-09-25T21:15:41;99991.00;;;17.00
13570;BMP180;6856;51.460;7.158;2022-09-25T21:18:15;99997.00;;;17.00
13570;BMP180;6856;51.460;7.158;2022-09-25T21:20:50;100002.00;;;17.00
13570;BMP180;6856;51.460;7.158;2022-09-25T21:23:24;99989.00;;;16.90
13570;BMP180;6856;51.460;7.158;2022-09-25T21:26:02;99982.00;;;16.90
13570;BMP180;6856;51.460;7.158;2022-09-25T21:28:37;99986.00;;;16.80
13570;BMP180;6856;51.460;7.158;2022-09-25T21:31:14;99980.00;;;16.80
13570;BMP180;6856;51.460;7.158;2022-09-25T21:33:50;99984.00;;;16.70
13570;BMP180;6856;51.460;7.158;2022-09-25T21:36:27;99979.00;;;16.70
13570;BMP180;6856;51.460;7.158;2022-09-25T21:39:03;99983.00;;;16.70
13570;BMP180;6856;51.460;7.158;2022-09-25T21:41:36;99981.00;;;16.60
13570;BMP180;6856;51.460;7.158;2022-09-25T21:44:14;99973.00;;;16.60
13570;BMP180;6856;51.460;7.158;2022-09-25T21:46:47;99975.00;;;16.60
13570;BMP180;6856;51.460;7.158;2022-09-25T21:49:21;99971.00;;;16.50
13570;BMP180;6856;51.460;7.158;2022-09-25T21:51:56;99981.00;;;16.50
13570;BMP180;6856;51.460;7.158;2022-09-25T21:54:29;99973.00;;;16.50
13570;BMP180;6856;51.460;7.158;2022-09-25T21:57:03;99971.00;;;16.50
13570;BMP180;6856;51.460;7.158;2022-09-25T21:59:36;99954.00;;;16.40
13570;BMP180;6856;51.460;7.158;2022-09-25T22:02:11;99961.00;;;16.40
13570;BMP180;6856;51.460;7.158;2022-09-25T22:04:45;99968.00;;;16.40
13570;BMP180;6856;51.460;7.158;2022-09-25T22:07:20;99960.00;;;16.40
13570;BMP180;6856;51.460;7.158;2022-09-25T22:09:54;99962.00;;;16.30
13570;BMP180;6856;51.460;7.158;2022-09-25T22:12:27;99955.00;;;16.30
13570;BMP180;6856;51.460;7.158;2022-09-25T22:15:01;99952.00;;;16.20
13570;BMP180;6856;51.460;7.158;2022-09-25T22:17:35;99952.00;;;16.20
13570;BMP180;6856;51.460;7.158;2022-09-25T22:20:08;99954.00;;;16.20
13570;BMP180;6856;51.460;7.158;2022-09-25T22:22:47;99945.00;;;16.10
13570;BMP180;6856;51.460;7.158;2022-09-25T22:25:20;99958.00;;;16.10
13570;BMP180;6856;51.460;7.158;2022-09-25T22:27:55;99959.00;;;16.00
13570;BMP180;6856;51.460;7.158;2022-09-25T22:30:28;99951.00;;;16.00
13570;BMP180;6856;51.460;7.158;2022-09-25T22:33:02;99950.00;;;15.80
13570;BMP180;6856;51.460;7.158;2022-09-25T22:35:36;99949.00;;;16.00
13570;BMP180;6856;51.460;7.158;2022-09-25T22:38:11;99951.00;;;16.00
13570;BMP180;6856;51.460;7.158;2022-09-25T22:40:44;99948.00;;;16.00
13570;BMP180;6856;51.460;7.158;2022-09-25T22:43:18;99943.00;;;15.90
13570;BMP180;6856;51.460;7.158;2022-09-25T22:45:52;99935.00;;;15.90
13570;BMP180;6856;51.460;7.158;2022-09-25T22:48:26;99935.00;;;16.00
13570;BMP180;6856;51.460;7.158;2022-09-25T22:51:02;99920.00;;;15.90
13570;BMP180;6856;51.460;7.158;2022-09-25T22:53:38;99929.00;;;15.90
13570;BMP180;6856;51.460;7.158;2022-09-25T22:56:15;99906.00;;;15.90
13570;BMP180;6856;51.460;7.158;2022-09-25T22:58:52;99919.00;;;15.90
13570;BMP180;6856;51.460;7.158;2022-09-25T23:01:29;99920.00;;;15.90
13570;BMP180;6856;51.460;7.158;2022-09-25T23:04:06;99915.00;;;15.90
13570;BMP180;6856;51.460;7.158;2022-09-25T23:06:40;99913.00;;;15.90
13570;BMP180;6856;51.460;7.158;2022-09-25T23:09:18;99859.00;;;15.80
13570;BMP180;6856;51.460;7.158;2022-09-25T23:11:53;99904.00;;;15.80
13570;BMP180;6856;51.460;7.158;2022-09-25T23:14:29;99900.00;;;15.80
13570;BMP180;6856;51.460;7.158;2022-09-25T23:17:03;99904.00;;;15.80
13570;BMP180;6856;51.460;7.158;2022-09-25T23:19:36;99895.00;;;15.70
13570;BMP180;6856;51.460;7.158;2022-09-25T23:22:10;99896.00;;;15.70
13570;BMP180;6856;51.460;7.158;2022-09-25T23:24:45;99892.00;;;15.70
13570;BMP180;6856;51.460;7.158;2022-09-25T23:27:18;99865.00;;;15.60
13570;BMP180;6856;51.460;7.158;2022-09-25T23:29:52;99884.00;;;15.60
13570;BMP180;6856;51.460;7.158;2022-09-25T23:32:25;99890.00;;;15.60
13570;BMP180;6856;51.460;7.158;2022-09-25T23:34:58;99880.00;;;15.60
13570;BMP180;6856;51.460;7.158;2022-09-25T23:37:32;99884.00;;;15.60
13570;BMP180;6856;51.460;7.158;2022-09-25T23:40:12;99875.00;;;15.60
13570;BMP180;6856;51.460;7.158;2022-09-25T23:42:46;99874.00;;;15.60
13570;BMP180;6856;51.460;7.158;2022-09-25T23:45:20;99865.00;;;15.60
13570;BMP180;6856;51.460;7.158;2022-09-25T23:47:54;99865.00;;;15.60
13570;BMP180;6856;51.460;7.158;2022-09-25T23:50:28;99861.00;;;15.50
13570;BMP180;6856;51.460;7.158;2022-09-25T23:53:02;99857.00;;;15.50
13570;BMP180;6856;51.460;7.158;2022-09-25T23:55:39;99858.00;;;15.50
13570;BMP180;6856;51.460;7.158;2022-09-25T23:58:13;99855.00;;;15.50
